sensor_id;sensor_type;location;lat;lon;timestamp;pressure;altitude;pressure_sealevel;temperature;humidity
24031;BME280;12240;51.142;22.486;2023-02-12T00:01:47;100397.13;;;2.36;100.00
24031;BME280;12240;51.142;22.486;2023-02-12T00:04:16;100415.19;;;2.25;100.00
24031;BME280;12240;51.142;22.486;2023-02-12T00:06:45;100403.72;;;2.09;100.00
24031;BME280;12240;51.142;22.486;2023-02-12T00:09:13;100415.53;;;2.01;100.00
24031;BME280;12240;51.142;22.486;2023-02-12T00:11:42;100385.28;;;1.75;100.00
24031;BME280;12240;51.142;22.486;2023-02-12T00:14:10;100410.88;;;1.89;100.00
24031;BME280;12240;51.142;22.486;2023-02-12T00:16:39;100423.00;;;1.91;100.00
24031;BME280;12240;51.142;22.486;2023-02-12T00:19:08;100437.06;;;1.90;100.00
24031;BME280;12240;51.142;22.486;2023-02-12T00:21:37;100440.81;;;1.85;100.00
24031;BME280;12240;51.142;22.486;2023-02-12T00:24:06;100432.72;;;1.71;100.00
24031;BME280;12240;51.142;22.486;2023-02-12T00:26:35;100442.03;;;1.78;100.00
24031;BME280;12240;51.142;22.486;2023-02-12T00:29:03;100462.25;;;1.76;100.00
24031;BME280;12240;51.142;22.486;2023-02-12T00:31:32;100426.13;;;1.44;100.00
24031;BME280;12240;51.142;22.486;2023-02-12T00:34:00;100461.34;;;1.58;100.00
24031;BME280;12240;51.142;22.486;2023-02-12T00:36:31;100483.41;;;1.54;100.00
24031;BME280;12240;51.142;22.486;2023-02-12T00:39:00;100483.47;;;1.53;100.00
24031;BME280;12240;51.142;22.486;2023-02-12T00:41:29;100501.94;;;1.50;100.00
24031;BME280;12240;51.142;22.486;2023-02-12T00:43:57;100415.03;;;0.80;100.00
24031;BME280;12240;51.142;22.486;2023-02-12T00:46:26;100493.16;;;1.12;100.00
24031;BME280;12240;51.142;22.486;2023-02-12T00:48:55;100506.41;;;1.09;100.00
24031;BME280;12240;51.142;22.486;2023-02-12T00:51:24;100455.81;;;0.67;100.00
24031;BME280;12240;51.142;22.486;2023-02-12T00:53:52;100495.50;;;0.78;100.00
24031;BME280;12240;51.142;22.486;2023-02-12T00:56:20;100505.28;;;0.74;100.00
24031;BME280;12240;51.142;22.486;2023-02-12T00:58:49;100465.13;;;0.32;100.00
24031;BME280;12240;51.142;22.486;2023-02-12T01:01:17;100518.56;;;0.50;100.00
24031;BME280;12240;51.142;22.486;2023-02-12T01:03:46;100505.50;;;0.27;100.00
24031;BME280;12240;51.142;22.486;2023-02-12T01:06:14;100521.94;;;0.30;100.00
24031;BME280;12240;51.142;22.486;2023-02-12T01:08:43;100521.69;;;0.15;100.00
24031;BME280;12240;51.142;22.486;2023-02-12T01:11:12;100524.25;;;0.16;100.00
24031;BME280;12240;51.142;22.486;2023-02-12T01:13:41;100534.06;;;0.11;100.00
24031;BME280;12240;51.142;22.486;2023-02-12T01:16:20;100480.75;;;-0.31;100.00
24031;BME280;12240;51.142;22.486;2023-02-12T01:18:51;100543.19;;;0.01;100.00
24031;BME280;12240;51.142;22.486;2023-02-12T01:21:29;100508.66;;;-0.32;100.00
24031;BME280;12240;51.142;22.486;2023-02-12T01:23:59;100549.75;;;-0.11;100.00
24031;BME280;12240;51.142;22.486;2023-02-12T01:26:29;100507.38;;;-0.43;100.00
24031;BME280;12240;51.142;22.486;2023-02-12T01:29:02;100514.84;;;-0.34;100.00
24031;BME280;12240;51.142;22.486;2023-02-12T01:31:36;100502.88;;;-0.40;100.00
24031;BME280;12240;51.142;22.486;2023-02-12T01:34:06;100551.09;;;-0.01;100.00
24031;BME280;12240;51.142;22.486;2023-02-12T01:36:38;100563.53;;;0.16;100.00
24031;BME280;12240;51.142;22.486;2023-02-12T01:39:06;100519.16;;;-0.10;100.00
24031;BME280;12240;51.142;22.486;2023-02-12T01:41:39;100566.34;;;0.33;100.00
24031;BME280;12240;51.142;22.486;2023-02-12T01:46:41;100595.50;;;0.47;100.00
24031;BME280;12240;51.142;22.486;2023-02-12T01:49:40;100579.66;;;0.50;100.00
24031;BME280;12240;51.142;22.486;2023-02-12T01:52:17;100596.84;;;0.57;100.00
24031;BME280;12240;51.142;22.486;2023-02-12T01:54:49;100598.72;;;0.54;100.00
24031;BME280;12240;51.142;22.486;2023-02-12T01:57:24;100562.47;;;0.43;100.00
24031;BME280;12240;51.142;22.486;2023-02-12T01:59:55;100542.78;;;0.33;100.00
24031;BME280;12240;51.142;22.486;2023-02-12T02:02:25;100581.19;;;0.56;100.00
24031;BME280;12240;51.142;22.486;2023-02-12T02:04:58;100588.69;;;0.65;100.00
24031;BME280;12240;51.142;22.486;2023-02-12T02:07:28;100567.47;;;0.49;100.00
24031;BME280;12240;51.142;22.486;2023-02-12T02:09:57;100601.91;;;0.62;100.00
24031;BME280;12240;51.142;22.486;2023-02-12T02:12:29;100606.97;;;0.66;100.00
24031;BME280;12240;51.142;22.486;2023-02-12T02:15:16;100600.13;;;0.62;100.00
24031;BME280;12240;51.142;22.486;2023-02-12T02:33:27;100631.00;;;0.77;100.00
24031;BME280;12240;51.142;22.486;2023-02-12T02:36:45;100578.09;;;0.46;100.00
24031;BME280;12240;51.142;22.486;2023-02-12T02:39:38;100632.88;;;0.74;100.00
24031;BME280;12240;51.142;22.486;2023-02-12T02:42:26;100618.25;;;0.68;100.00
24031;BME280;12240;51.142;22.486;2023-02-12T02:47:44;100645.72;;;0.80;100.00
24031;BME280;12240;51.142;22.486;2023-02-12T02:50:17;100643.19;;;0.78;100.00
24031;BME280;12240;51.142;22.486;2023-02-12T02:52:58;100659.72;;;0.80;100.00
24031;BME280;12240;51.142;22.486;2023-02-12T02:55:36;100667.63;;;0.79;100.00
24031;BME280;12240;51.142;22.486;2023-02-12T02:58:12;100659.78;;;0.79;100.00
24031;BME280;12240;51.142;22.486;2023-02-12T03:06:56;100683.59;;;0.73;100.00
24031;BME280;12240;51.142;22.486;2023-02-12T03:09:48;100660.47;;;0.61;100.00
24031;BME280;12240;51.142;22.486;2023-02-12T03:12:27;100687.19;;;0.70;100.00
24031;BME280;12240;51.142;22.486;2023-02-12T03:15:14;100677.53;;;0.71;100.00
24031;BME280;12240;51.142;22.486;2023-02-12T03:17:48;100557.28;;;-0.03;100.00
24031;BME280;12240;51.142;22.486;2023-02-12T03:20:25;100689.81;;;0.70;100.00
24031;BME280;12240;51.142;22.486;2023-02-12T03:23:05;100707.31;;;0.70;100.00
24031;BME280;12240;51.142;22.486;2023-02-12T03:26:00;100714.09;;;0.75;100.00
24031;BME280;12240;51.142;22.486;2023-02-12T03:28:35;100718.41;;;0.76;100.00
24031;BME280;12240;51.142;22.486;2023-02-12T03:34:25;100680.03;;;0.52;100.00
24031;BME280;12240;51.142;22.486;2023-02-12T03:37:07;100673.44;;;0.42;100.00
24031;BME280;12240;51.142;22.486;2023-02-12T03:39:53;100723.72;;;0.75;100.00
24031;BME280;12240;51.142;22.486;2023-02-12T03:53:26;100754.78;;;0.62;100.00
24031;BME280;12240;51.142;22.486;2023-02-12T03:56:08;100768.22;;;0.76;100.00
24031;BME280;12240;51.142;22.486;2023-02-12T03:58:40;100695.81;;;0.28;100.00
24031;BME280;12240;51.142;22.486;2023-02-12T04:01:11;100787.72;;;0.69;100.00
24031;BME280;12240;51.142;22.486;2023-02-12T04:03:41;100733.75;;;0.41;100.00
24031;BME280;12240;51.142;22.486;2023-02-12T04:06:25;100788.63;;;0.68;100.00
24031;BME280;12240;51.142;22.486;2023-02-12T04:08:57;100737.03;;;0.23;100.00
24031;BME280;12240;51.142;22.486;2023-02-12T04:14:48;100782.75;;;0.62;100.00
24031;BME280;12240;51.142;22.486;2023-02-12T04:18:14;100828.50;;;0.76;100.00
24031;BME280;12240;51.142;22.486;2023-02-12T04:32:15;100833.19;;;0.68;100.00
24031;BME280;12240;51.142;22.486;2023-02-12T04:35:12;100781.81;;;0.40;100.00
24031;BME280;12240;51.142;22.486;2023-02-12T04:38:17;100833.25;;;0.67;100.00
24031;BME280;12240;51.142;22.486;2023-02-12T04:40:47;100796.41;;;0.47;100.00
24031;BME280;12240;51.142;22.486;2023-02-12T04:43:29;100832.28;;;0.69;100.00
24031;BME280;12240;51.142;22.486;2023-02-12T04:46:01;100835.19;;;0.62;100.00
24031;BME280;12240;51.142;22.486;2023-02-12T04:48:30;100855.06;;;0.67;100.00
24031;BME280;12240;51.142;22.486;2023-02-12T04:50:59;100851.88;;;0.59;100.00
24031;BME280;12240;51.142;22.486;2023-02-12T04:53:28;100813.31;;;0.38;100.00
24031;BME280;12240;51.142;22.486;2023-02-12T04:55:57;100857.69;;;0.67;100.00
24031;BME280;12240;51.142;22.486;2023-02-12T04:58:25;100869.84;;;0.70;100.00
24031;BME280;12240;51.142;22.486;2023-02-12T05:00:53;100723.19;;;-0.30;100.00
24031;BME280;12240;51.142;22.486;2023-02-12T05:03:25;100901.34;;;0.68;100.00
24031;BME280;12240;51.142;22.486;2023-02-12T05:05:53;100872.25;;;0.51;100.00
24031;BME280;12240;51.142;22.486;2023-02-12T05:08:22;100895.41;;;0.63;100.00
24031;BME280;12240;51.142;22.486;2023-02-12T05:10:50;100858.53;;;0.43;100.00
24031;BME280;12240;51.142;22.486;2023-02-12T05:13:18;100839.19;;;0.23;100.00
24031;BME280;12240;51.142;22.486;2023-02-12T05:15:46;100913.06;;;0.58;100.00
24031;BME280;12240;51.142;22.486;2023-02-12T05:18:15;100903.66;;;0.53;100.00
24031;BME280;12240;51.142;22.486;2023-02-12T05:20:43;100918.38;;;0.55;100.00
24031;BME280;12240;51.142;22.486;2023-02-12T05:23:11;100920.13;;;0.56;100.00
24031;BME280;12240;51.142;22.486;2023-02-12T05:25:40;100889.28;;;0.38;100.00
24031;BME280;12240;51.142;22.486;2023-02-12T05:28:08;100895.44;;;0.37;100.00
24031;BME280;12240;51.142;22.486;2023-02-12T05:30:36;100929.00;;;0.52;100.00
24031;BME280;12240;51.142;22.486;2023-02-12T05:33:04;100928.13;;;0.52;100.00
24031;BME280;12240;51.142;22.486;2023-02-12T05:35:34;100898.44;;;0.27;100.00
24031;BME280;12240;51.142;22.486;2023-02-12T05:38:03;100894.19;;;0.23;100.00
24031;BME280;12240;51.142;22.486;2023-02-12T05:40:31;100946.47;;;0.52;100.00
24031;BME280;12240;51.142;22.486;2023-02-12T05:43:00;100918.38;;;0.31;100.00
24031;BME280;12240;51.142;22.486;2023-02-12T05:45:29;100902.91;;;0.23;100.00
24031;BME280;12240;51.142;22.486;2023-02-12T05:47:59;100905.53;;;0.23;100.00
24031;BME280;12240;51.142;22.486;2023-02-12T05:50:27;100878.44;;;-0.02;100.00
24031;BME280;12240;51.142;22.486;2023-02-12T05:53:00;100927.13;;;0.30;100.00
24031;BME280;12240;51.142;22.486;2023-02-12T05:55:28;100942.81;;;0.31;100.00
24031;BME280;12240;51.142;22.486;2023-02-12T05:57:56;100953.03;;;0.39;100.00
24031;BME280;12240;51.142;22.486;2023-02-12T06:00:25;100969.63;;;0.39;100.00
24031;BME280;12240;51.142;22.486;2023-02-12T06:02:53;100980.19;;;0.36;100.00
24031;BME280;12240;51.142;22.486;2023-02-12T06:05:21;100978.53;;;0.34;100.00
24031;BME280;12240;51.142;22.486;2023-02-12T06:07:50;100990.59;;;0.39;100.00
24031;BME280;12240;51.142;22.486;2023-02-12T06:10:18;100946.91;;;0.14;100.00
24031;BME280;12240;51.142;22.486;2023-02-12T06:12:53;101001.00;;;0.41;100.00
24031;BME280;12240;51.142;22.486;2023-02-12T06:15:21;101002.78;;;0.40;100.00
24031;BME280;12240;51.142;22.486;2023-02-12T06:17:49;100957.28;;;0.17;100.00
24031;BME280;12240;51.142;22.486;2023-02-12T06:20:21;100970.41;;;0.15;100.00
24031;BME280;12240;51.142;22.486;2023-02-12T06:22:49;100970.47;;;0.14;100.00
24031;BME280;12240;51.142;22.486;2023-02-12T06:25:20;101013.47;;;0.34;100.00
24031;BME280;12240;51.142;22.486;2023-02-12T06:27:49;101024.78;;;0.35;100.00
24031;BME280;12240;51.142;22.486;2023-02-12T06:30:18;101041.25;;;0.38;100.00
24031;BME280;12240;51.142;22.486;2023-02-12T06:32:50;101038.03;;;0.30;100.00
24031;BME280;12240;51.142;22.486;2023-02-12T06:35:19;101042.41;;;0.30;100.00
24031;BME280;12240;51.142;22.486;2023-02-12T06:37:47;101004.03;;;0.01;100.00
24031;BME280;12240;51.142;22.486;2023-02-12T06:40:16;101056.38;;;0.30;100.00
24031;BME280;12240;51.142;22.486;2023-02-12T06:42:45;101015.44;;;0.00;100.00
24031;BME280;12240;51.142;22.486;2023-02-12T06:45:13;101064.28;;;0.29;100.00
24031;BME280;12240;51.142;22.486;2023-02-12T06:47:41;101013.53;;;0.03;100.00
24031;BME280;12240;51.142;22.486;2023-02-12T06:50:10;101053.84;;;0.27;100.00
24031;BME280;12240;51.142;22.486;2023-02-12T06:52:38;101066.63;;;0.38;100.00
24031;BME280;12240;51.142;22.486;2023-02-12T06:55:06;101034.00;;;0.20;100.00
24031;BME280;12240;51.142;22.486;2023-02-12T06:57:34;101023.50;;;0.20;100.00
24031;BME280;12240;51.142;22.486;2023-02-12T07:00:04;101079.34;;;0.50;100.00
24031;BME280;12240;51.142;22.486;2023-02-12T07:02:32;101027.88;;;0.20;100.00
24031;BME280;12240;51.142;22.486;2023-02-12T07:05:00;101078.97;;;0.60;100.00
24031;BME280;12240;51.142;22.486;2023-02-12T07:07:28;101078.69;;;0.69;100.00
24031;BME280;12240;51.142;22.486;2023-02-12T07:09:57;101072.94;;;0.58;100.00
24031;BME280;12240;51.142;22.486;2023-02-12T07:12:25;101078.56;;;0.74;100.00
24031;BME280;12240;51.142;22.486;2023-02-12T07:14:53;101070.81;;;0.69;100.00
24031;BME280;12240;51.142;22.486;2023-02-12T07:17:21;101076.47;;;0.83;100.00
24031;BME280;12240;51.142;22.486;2023-02-12T07:19:49;101049.03;;;0.67;100.00
24031;BME280;12240;51.142;22.486;2023-02-12T07:22:18;101073.91;;;0.82;100.00
24031;BME280;12240;51.142;22.486;2023-02-12T07:24:48;100956.41;;;0.16;100.00
24031;BME280;12240;51.142;22.486;2023-02-12T07:27:16;101031.56;;;0.68;100.00
24031;BME280;12240;51.142;22.486;2023-02-12T07:29:44;101070.41;;;1.07;100.00
24031;BME280;12240;51.142;22.486;2023-02-12T07:32:13;101079.16;;;1.08;100.00
24031;BME280;12240;51.142;22.486;2023-02-12T07:34:41;101069.72;;;1.02;100.00
24031;BME280;12240;51.142;22.486;2023-02-12T07:37:09;101089.47;;;1.12;100.00
24031;BME280;12240;51.142;22.486;2023-02-12T07:39:38;101073.63;;;1.15;100.00
24031;BME280;12240;51.142;22.486;2023-02-12T07:42:06;101070.25;;;1.12;100.00
24031;BME280;12240;51.142;22.486;2023-02-12T07:44:36;101013.22;;;0.68;100.00
24031;BME280;12240;51.142;22.486;2023-02-12T07:47:04;101076.13;;;1.20;100.00
24031;BME280;12240;51.142;22.486;2023-02-12T07:49:33;101069.47;;;1.10;100.00
24031;BME280;12240;51.142;22.486;2023-02-12T07:52:01;101068.50;;;1.12;100.00
24031;BME280;12240;51.142;22.486;2023-02-12T07:54:29;101072.44;;;1.26;100.00
24031;BME280;12240;51.142;22.486;2023-02-12T07:56:57;101078.94;;;1.39;100.00
24031;BME280;12240;51.142;22.486;2023-02-12T07:59:28;101028.28;;;0.87;100.00
24031;BME280;12240;51.142;22.486;2023-02-12T08:01:57;101061.84;;;1.02;100.00
24031;BME280;12240;51.142;22.486;2023-02-12T08:04:28;101073.34;;;0.98;100.00
24031;BME280;12240;51.142;22.486;2023-02-12T08:06:56;101011.16;;;0.51;100.00
24031;BME280;12240;51.142;22.486;2023-02-12T08:09:27;101078.06;;;0.89;100.00
24031;BME280;12240;51.142;22.486;2023-02-12T08:11:57;101007.31;;;0.61;100.00
24031;BME280;12240;51.142;22.486;2023-02-12T08:14:26;101020.25;;;0.66;100.00
24031;BME280;12240;51.142;22.486;2023-02-12T08:16:54;101016.69;;;0.68;100.00
24031;BME280;12240;51.142;22.486;2023-02-12T08:19:23;101052.41;;;0.97;100.00
24031;BME280;12240;51.142;22.486;2023-02-12T08:21:54;101073.94;;;1.31;100.00
24031;BME280;12240;51.142;22.486;2023-02-12T08:24:24;101036.44;;;1.04;100.00
24031;BME280;12240;51.142;22.486;2023-02-12T08:26:52;101097.75;;;1.51;100.00
24031;BME280;12240;51.142;22.486;2023-02-12T08:29:24;101085.91;;;1.40;100.00
24031;BME280;12240;51.142;22.486;2023-02-12T08:32:02;101062.69;;;1.28;100.00
24031;BME280;12240;51.142;22.486;2023-02-12T08:34:34;101065.47;;;0.98;100.00
24031;BME280;12240;51.142;22.486;2023-02-12T08:37:05;101072.44;;;0.99;100.00
24031;BME280;12240;51.142;22.486;2023-02-12T08:39:34;101030.97;;;1.10;100.00
24031;BME280;12240;51.142;22.486;2023-02-12T08:42:04;101092.59;;;1.96;100.00
24031;BME280;12240;51.142;22.486;2023-02-12T08:44:33;101091.25;;;2.30;100.00
24031;BME280;12240;51.142;22.486;2023-02-12T08:47:01;101093.97;;;2.72;100.00
24031;BME280;12240;51.142;22.486;2023-02-12T08:49:30;100995.66;;;2.33;100.00
24031;BME280;12240;51.142;22.486;2023-02-12T08:51:59;101081.34;;;3.22;100.00
24031;BME280;12240;51.142;22.486;2023-02-12T08:54:30;101090.09;;;3.63;100.00
24031;BME280;12240;51.142;22.486;2023-02-12T08:57:01;101071.41;;;3.48;100.00
24031;BME280;12240;51.142;22.486;2023-02-12T08:59:29;101044.13;;;3.11;100.00
24031;BME280;12240;51.142;22.486;2023-02-12T09:01:58;101017.59;;;2.95;100.00
24031;BME280;12240;51.142;22.486;2023-02-12T09:04:28;101040.09;;;3.22;100.00
24031;BME280;12240;51.142;22.486;2023-02-12T09:06:57;100977.84;;;2.61;100.00
24031;BME280;12240;51.142;22.486;2023-02-12T09:09:25;101013.50;;;2.25;100.00
24031;BME280;12240;51.142;22.486;2023-02-12T09:11:53;101059.88;;;2.91;100.00
24031;BME280;12240;51.142;22.486;2023-02-12T09:14:22;101053.13;;;3.25;100.00
24031;BME280;12240;51.142;22.486;2023-02-12T09:16:53;101005.34;;;3.34;100.00
24031;BME280;12240;51.142;22.486;2023-02-12T09:19:22;101079.78;;;4.15;100.00
24031;BME280;12240;51.142;22.486;2023-02-12T09:21:54;101046.88;;;3.87;100.00
24031;BME280;12240;51.142;22.486;2023-02-12T09:24:26;101068.38;;;4.15;100.00
24031;BME280;12240;51.142;22.486;2023-02-12T09:26:55;101030.66;;;3.57;100.00
24031;BME280;12240;51.142;22.486;2023-02-12T09:29:24;101058.38;;;3.84;100.00
24031;BME280;12240;51.142;22.486;2023-02-12T09:31:52;101027.78;;;3.82;100.00
24031;BME280;12240;51.142;22.486;2023-02-12T09:34:21;101028.56;;;3.45;100.00
24031;BME280;12240;51.142;22.486;2023-02-12T09:36:50;101061.06;;;3.64;100.00
24031;BME280;12240;51.142;22.486;2023-02-12T09:39:18;101062.16;;;3.40;100.00
24031;BME280;12240;51.142;22.486;2023-02-12T09:47:29;101101.13;;;5.01;100.00
24031;BME280;12240;51.142;22.486;2023-02-12T09:50:36;101083.06;;;5.10;100.00
24031;BME280;12240;51.142;22.486;2023-02-12T09:53:15;101079.00;;;5.54;100.00
24031;BME280;12240;51.142;22.486;2023-02-12T09:55:44;101046.47;;;5.20;100.00
24031;BME280;12240;51.142;22.486;2023-02-12T10:01:20;101028.13;;;5.00;100.00
24031;BME280;12240;51.142;22.486;2023-02-12T10:03:51;101041.88;;;4.89;100.00
24031;BME280;12240;51.142;22.486;2023-02-12T10:06:29;101033.03;;;5.24;100.00
24031;BME280;12240;51.142;22.486;2023-02-12T10:18:40;101021.75;;;4.34;100.00
24031;BME280;12240;51.142;22.486;2023-02-12T10:25:17;101045.75;;;4.99;100.00
24031;BME280;12240;51.142;22.486;2023-02-12T10:27:53;101046.38;;;5.04;100.00
24031;BME280;12240;51.142;22.486;2023-02-12T10:33:35;101065.53;;;5.76;100.00
24031;BME280;12240;51.142;22.486;2023-02-12T10:39:02;101019.69;;;4.76;100.00
24031;BME280;12240;51.142;22.486;2023-02-12T10:41:37;101005.97;;;4.15;100.00
24031;BME280;12240;51.142;22.486;2023-02-12T10:44:10;101018.38;;;4.49;100.00
24031;BME280;12240;51.142;22.486;2023-02-12T10:46:39;101014.22;;;4.26;100.00
24031;BME280;12240;51.142;22.486;2023-02-12T10:49:15;101026.19;;;4.69;100.00
24031;BME280;12240;51.142;22.486;2023-02-12T10:52:14;101041.25;;;5.01;100.00
24031;BME280;12240;51.142;22.486;2023-02-12T10:54:46;100991.81;;;4.88;100.00
24031;BME280;12240;51.142;22.486;2023-02-12T10:57:27;100951.34;;;4.36;100.00
24031;BME280;12240;51.142;22.486;2023-02-12T11:00:26;100993.44;;;4.37;100.00
24031;BME280;12240;51.142;22.486;2023-02-12T11:05:42;101044.59;;;5.88;100.00
24031;BME280;12240;51.142;22.486;2023-02-12T11:08:32;100959.88;;;5.09;100.00
24031;BME280;12240;51.142;22.486;2023-02-12T11:11:15;100986.66;;;5.19;100.00
24031;BME280;12240;51.142;22.486;2023-02-12T11:16:37;101002.50;;;5.19;100.00
24031;BME280;12240;51.142;22.486;2023-02-12T11:19:29;101033.75;;;5.60;100.00
24031;BME280;12240;51.142;22.486;2023-02-12T11:22:11;101014.16;;;4.81;100.00
24031;BME280;12240;51.142;22.486;2023-02-12T11:24:46;101007.56;;;4.72;100.00
24031;BME280;12240;51.142;22.486;2023-02-12T11:27:28;100979.69;;;4.84;100.00
24031;BME280;12240;51.142;22.486;2023-02-12T11:30:18;100955.59;;;4.21;100.00
24031;BME280;12240;51.142;22.486;2023-02-12T11:32:47;101004.16;;;4.34;100.00
24031;BME280;12240;51.142;22.486;2023-02-12T11:35:23;101031.94;;;5.11;100.00
24031;BME280;12240;51.142;22.486;2023-02-12T11:37:59;101036.56;;;5.40;100.00
24031;BME280;12240;51.142;22.486;2023-02-12T11:40:33;100958.81;;;4.96;100.00
24031;BME280;12240;51.142;22.486;2023-02-12T11:43:07;100973.81;;;5.28;100.00
24031;BME280;12240;51.142;22.486;2023-02-12T11:45:46;101006.56;;;5.58;100.00
24031;BME280;12240;51.142;22.486;2023-02-12T11:48:36;100984.31;;;5.62;100.00
24031;BME280;12240;51.142;22.486;2023-02-12T11:51:09;100976.81;;;5.87;100.00
24031;BME280;12240;51.142;22.486;2023-02-12T11:53:51;101014.44;;;6.39;100.00
24031;BME280;12240;51.142;22.486;2023-02-12T11:56:21;100980.38;;;6.02;100.00
24031;BME280;12240;51.142;22.486;2023-02-12T11:58:51;100983.09;;;5.85;100.00
24031;BME280;12240;51.142;22.486;2023-02-12T12:04:19;100963.31;;;5.44;100.00
24031;BME280;12240;51.142;22.486;2023-02-12T12:07:02;100975.94;;;5.54;100.00
24031;BME280;12240;51.142;22.486;2023-02-12T12:10:11;100987.63;;;5.99;100.00
24031;BME280;12240;51.142;22.486;2023-02-12T12:12:51;100986.69;;;6.00;100.00
24031;BME280;12240;51.142;22.486;2023-02-12T12:15:35;100934.56;;;5.70;100.00
24031;BME280;12240;51.142;22.486;2023-02-12T12:18:46;100995.81;;;6.41;100.00
24031;BME280;12240;51.142;22.486;2023-02-12T12:22:01;100977.72;;;6.33;100.00
24031;BME280;12240;51.142;22.486;2023-02-12T12:25:15;100969.97;;;5.99;100.00
24031;BME280;12240;51.142;22.486;2023-02-12T12:31:12;100981.59;;;5.97;100.00
24031;BME280;12240;51.142;22.486;2023-02-12T12:40:13;100892.81;;;4.96;100.00
24031;BME280;12240;51.142;22.486;2023-02-12T12:46:02;100939.41;;;4.63;100.00
24031;BME280;12240;51.142;22.486;2023-02-12T12:52:18;100974.28;;;5.69;100.00
24031;BME280;12240;51.142;22.486;2023-02-12T13:06:38;100958.38;;;5.86;100.00
24031;BME280;12240;51.142;22.486;2023-02-12T13:09:51;100964.59;;;6.01;100.00
24031;BME280;12240;51.142;22.486;2023-02-12T13:12:50;100948.72;;;5.85;100.00
24031;BME280;12240;51.142;22.486;2023-02-12T13:21:53;100910.91;;;5.36;100.00
24031;BME280;12240;51.142;22.486;2023-02-12T13:35:40;100920.25;;;5.42;100.00
24031;BME280;12240;51.142;22.486;2023-02-12T13:38:31;100900.81;;;5.27;100.00
24031;BME280;12240;51.142;22.486;2023-02-12T13:41:09;100958.78;;;5.46;100.00
24031;BME280;12240;51.142;22.486;2023-02-12T13:52:22;100946.13;;;5.20;100.00
24031;BME280;12240;51.142;22.486;2023-02-12T14:01:10;100889.47;;;3.72;100.00
24031;BME280;12240;51.142;22.486;2023-02-12T14:03:40;100963.69;;;4.52;100.00
24031;BME280;12240;51.142;22.486;2023-02-12T14:09:08;100941.53;;;3.85;100.00
24031;BME280;12240;51.142;22.486;2023-02-12T14:11:50;100940.97;;;3.60;100.00
24031;BME280;12240;51.142;22.486;2023-02-12T14:14:31;100968.06;;;3.99;100.00
24031;BME280;12240;51.142;22.486;2023-02-12T14:25:43;100928.72;;;3.02;100.00
24031;BME280;12240;51.142;22.486;2023-02-12T14:28:41;100974.94;;;3.27;100.00
24031;BME280;12240;51.142;22.486;2023-02-12T14:31:30;101007.31;;;3.29;100.00
24031;BME280;12240;51.142;22.486;2023-02-12T14:36:37;101010.19;;;3.23;100.00
24031;BME280;12240;51.142;22.486;2023-02-12T14:44:56;101013.53;;;3.28;100.00
24031;BME280;12240;51.142;22.486;2023-02-12T14:50:17;100965.88;;;2.74;100.00
24031;BME280;12240;51.142;22.486;2023-02-12T14:52:59;101036.53;;;3.03;100.00
24031;BME280;12240;51.142;22.486;2023-02-12T14:55:33;101039.41;;;2.77;100.00
24031;BME280;12240;51.142;22.486;2023-02-12T14:58:14;100993.34;;;2.47;100.00
24031;BME280;12240;51.142;22.486;2023-02-12T15:00:47;101042.44;;;2.68;100.00
24031;BME280;12240;51.142;22.486;2023-02-12T15:03:24;101056.03;;;2.78;100.00
24031;BME280;12240;51.142;22.486;2023-02-12T15:16:53;101105.28;;;2.08;100.00
24031;BME280;12240;51.142;22.486;2023-02-12T15:19:39;101124.34;;;1.90;100.00
24031;BME280;12240;51.142;22.486;2023-02-12T15:22:23;101137.91;;;1.78;100.00
24031;BME280;12240;51.142;22.486;2023-02-12T15:25:31;101128.28;;;1.54;100.00
24031;BME280;12240;51.142;22.486;2023-02-12T15:28:18;101108.28;;;1.25;100.00
24031;BME280;12240;51.142;22.486;2023-02-12T15:30:49;101166.75;;;1.55;100.00
24031;BME280;12240;51.142;22.486;2023-02-12T15:33:27;101149.06;;;1.35;100.00
24031;BME280;12240;51.142;22.486;2023-02-12T15:35:56;101134.59;;;1.24;100.00
24031;BME280;12240;51.142;22.486;2023-02-12T15:38:35;101133.13;;;1.15;100.00
24031;BME280;12240;51.142;22.486;2023-02-12T15:41:05;101165.97;;;1.27;100.00
24031;BME280;12240;51.142;22.486;2023-02-12T15:43:39;101180.09;;;1.23;100.00
24031;BME280;12240;51.142;22.486;2023-02-12T15:46:16;101170.16;;;1.06;100.00
24031;BME280;12240;51.142;22.486;2023-02-12T15:48:46;101029.63;;;0.19;100.00
24031;BME280;12240;51.142;22.486;2023-02-12T15:53:58;101136.41;;;0.68;100.00
24031;BME280;12240;51.142;22.486;2023-02-12T15:56:28;101183.19;;;0.81;100.00
24031;BME280;12240;51.142;22.486;2023-02-12T15:58:59;101187.72;;;0.76;100.00
24031;BME280;12240;51.142;22.486;2023-02-12T16:01:32;101200.75;;;0.78;100.00
24031;BME280;12240;51.142;22.486;2023-02-12T16:04:05;101191.47;;;0.68;100.00
24031;BME280;12240;51.142;22.486;2023-02-12T16:06:35;101204.63;;;0.66;100.00
24031;BME280;12240;51.142;22.486;2023-02-12T16:09:14;101213.72;;;0.55;100.00
24031;BME280;12240;51.142;22.486;2023-02-12T16:11:46;101165.00;;;0.19;100.00
24031;BME280;12240;51.142;22.486;2023-02-12T16:16:59;101172.88;;;0.19;100.00
24031;BME280;12240;51.142;22.486;2023-02-12T16:19:33;101198.00;;;0.26;100.00
24031;BME280;12240;51.142;22.486;2023-02-12T16:22:15;101170.91;;;-0.04;100.00
24031;BME280;12240;51.142;22.486;2023-02-12T16:24:52;101180.84;;;-0.17;100.00
24031;BME280;12240;51.142;22.486;2023-02-12T16:29:59;101245.00;;;-0.01;100.00
24031;BME280;12240;51.142;22.486;2023-02-12T16:32:42;101187.50;;;-0.37;100.00